Time;durP1;ratioP1;P1;durP2;ratioP2;P2;SDS_P1;SDS_P2;PMS_P1;PMS_P2;Temp;Humidity;BMP_temperature;BMP_pressure;BME280_temperature;BME280_humidity;BME280_pressure;Samples;Min_cycle;Max_cycle;Signal;HPM_P1;HPM_P2
2023/10/21 03:03:05;;;;;;;0.50;0.30;;;27.10;39.50;;;;;;4848348;28;47300;-50
2023/10/21 03:05:30;;;;;;;0.40;0.30;;;27.10;39.40;;;;;;4876784;28;46576;-54
2023/10/21 03:07:56;;;;;;;0.30;0.30;;;27.10;39.40;;;;;;4901395;28;45547;-50
2023/10/21 03:10:22;;;;;;;0.40;0.20;;;27.10;39.40;;;;;;4890344;28;45450;-53
2023/10/21 03:12:48;;;;;;;0.28;0.25;;;27.10;39.30;;;;;;4899635;28;45097;-51
2023/10/21 03:15:14;;;;;;;0.90;0.22;;;27.10;39.30;;;;;;4882935;28;45528;-53
2023/10/21 03:17:39;;;;;;;0.98;0.40;;;27.10;39.30;;;;;;4881607;28;48114;-52
2023/10/21 03:20:07;;;;;;;0.40;0.30;;;27.20;39.30;;;;;;4876731;28;45717;-54
2023/10/21 03:22:32;;;;;;;0.40;0.20;;;27.20;39.30;;;;;;4891399;28;45343;-50
2023/10/21 03:24:58;;;;;;;0.20;0.20;;;27.20;39.90;;;;;;4902418;28;45468;-54
2023/10/21 03:27:25;;;;;;;1.25;0.30;;;27.20;39.30;;;;;;4890836;28;45527;-54
2023/10/21 03:29:51;;;;;;;0.30;0.30;;;27.20;39.30;;;;;;4901733;28;45503;-52
2023/10/21 03:32:17;;;;;;;0.40;0.20;;;27.20;39.30;;;;;;4883517;28;45384;-54
2023/10/21 03:34:43;;;;;;;0.40;0.20;;;27.20;39.30;;;;;;4897843;28;46320;-54
2023/10/21 03:37:09;;;;;;;0.40;0.40;;;27.20;39.20;;;;;;4878636;28;45887;-53
2023/10/21 03:39:34;;;;;;;0.20;0.20;;;27.20;39.20;;;;;;4889533;28;45820;-55
2023/10/21 03:42:00;;;;;;;0.70;0.20;;;27.20;39.20;;;;;;4897270;28;45271;-54
2023/10/21 03:44:25;;;;;;;0.22;0.20;;;27.30;39.30;;;;;;4900224;28;45494;-51
2023/10/21 03:46:51;;;;;;;0.30;0.17;;;27.20;39.20;;;;;;4880772;28;45463;-54
2023/10/21 03:49:17;;;;;;;0.40;0.20;;;27.20;39.10;;;;;;4899016;28;45323;-53
2023/10/21 03:51:43;;;;;;;0.32;0.28;;;27.30;39.20;;;;;;4883141;28;45683;-51
2023/10/21 03:54:09;;;;;;;0.38;0.22;;;27.20;39.10;;;;;;4901446;28;45635;-50
2023/10/21 03:56:34;;;;;;;0.43;0.20;;;27.30;39.20;;;;;;4877088;28;45664;-51
2023/10/21 03:59:00;;;;;;;0.28;0.20;;;27.30;39.20;;;;;;4898583;28;45128;-52
2023/10/21 04:01:25;;;;;;;0.10;0.10;;;27.30;39.10;;;;;;4871130;28;45253;-50
2023/10/21 04:03:51;;;;;;;0.27;0.20;;;27.30;39.10;;;;;;4878628;28;45930;-50
2023/10/21 04:06:17;;;;;;;0.43;0.30;;;27.30;39.10;;;;;;4870414;28;45572;-51
2023/10/21 04:08:43;;;;;;;0.20;0.20;;;27.30;39.10;;;;;;4879233;28;45702;-52
2023/10/21 04:11:08;;;;;;;0.30;0.20;;;27.30;39.00;;;;;;4854129;28;45606;-51
2023/10/21 04:13:35;;;;;;;0.77;0.20;;;27.30;39.00;;;;;;4871176;28;46109;-53
2023/10/21 04:16:00;;;;;;;0.35;0.20;;;27.30;39.00;;;;;;4861485;28;45846;-50
2023/10/21 04:18:26;;;;;;;0.30;0.20;;;27.30;39.00;;;;;;4878067;28;45560;-52
2023/10/21 04:20:52;;;;;;;0.20;0.20;;;27.30;39.10;;;;;;4849025;28;45570;-51
2023/10/21 04:23:17;;;;;;;0.60;0.30;;;27.30;39.00;;;;;;4883100;28;46549;-51
2023/10/21 04:25:45;;;;;;;0.30;0.20;;;27.30;39.00;;;;;;4855568;28;45257;-50
2023/10/21 04:28:11;;;;;;;0.22;0.22;;;27.30;39.00;;;;;;4882085;28;45467;-50
2023/10/21 04:30:37;;;;;;;0.27;0.27;;;27.30;39.00;;;;;;4870920;28;45351;-54
2023/10/21 04:33:03;;;;;;;0.40;0.20;;;27.30;39.00;;;;;;4878959;28;45290;-52
2023/10/21 04:35:29;;;;;;;0.20;0.20;;;27.30;38.90;;;;;;4852379;28;45297;-54
2023/10/21 04:37:55;;;;;;;1.30;0.20;;;27.30;39.00;;;;;;4881157;28;45941;-51
2023/10/21 04:40:21;;;;;;;0.28;0.20;;;27.30;38.90;;;;;;4860056;28;45680;-52
2023/10/21 04:42:46;;;;;;;0.10;0.10;;;27.30;38.90;;;;;;4873455;28;45464;-50
2023/10/21 04:45:12;;;;;;;0.10;0.10;;;27.30;38.90;;;;;;4875872;28;45973;-51
2023/10/21 04:47:38;;;;;;;0.20;0.20;;;27.30;38.90;;;;;;4858485;28;45124;-52
2023/10/21 04:50:04;;;;;;;0.70;0.20;;;27.30;38.90;;;;;;4881263;28;45259;-51
2023/10/21 04:52:30;;;;;;;0.20;0.20;;;27.30;39.00;;;;;;4874318;28;46043;-51
2023/10/21 04:54:56;;;;;;;0.30;0.10;;;27.30;38.90;;;;;;4880814;28;45215;-52
2023/10/21 04:57:21;;;;;;;0.20;0.10;;;27.30;38.90;;;;;;4827162;28;45187;-50
2023/10/21 04:59:47;;;;;;;0.20;0.20;;;27.30;38.90;;;;;;4876318;28;45271;-49
2023/10/21 05:02:12;;;;;;;0.25;0.25;;;27.30;38.90;;;;;;4870519;28;45491;-47
2023/10/21 05:04:39;;;;;;;0.30;0.28;;;27.30;38.90;;;;;;4893724;28;45306;-48
2023/10/21 05:07:05;;;;;;;0.70;0.20;;;27.30;38.90;;;;;;4892863;28;45982;-49
2023/10/21 05:09:30;;;;;;;0.40;0.20;;;27.30;38.90;;;;;;4899095;28;45398;-50
2023/10/21 05:11:56;;;;;;;0.30;0.20;;;27.30;38.90;;;;;;4872673;28;45815;-50
2023/10/21 05:14:21;;;;;;;0.37;0.20;;;27.30;38.90;;;;;;4897298;28;45937;-49
2023/10/21 05:16:47;;;;;;;0.20;0.20;;;27.30;38.90;;;;;;4880308;28;45700;-52
2023/10/21 05:19:12;;;;;;;0.17;0.17;;;27.30;38.90;;;;;;4901702;28;44741;-51
2023/10/21 05:21:38;;;;;;;0.40;0.20;;;27.30;38.90;;;;;;4867823;28;50202;-53
2023/10/21 05:24:04;;;;;;;0.10;0.10;;;27.30;38.90;;;;;;4901001;28;45560;-52
2023/10/21 05:26:29;;;;;;;0.30;0.20;;;27.30;38.80;;;;;;4855392;28;45842;-50
2023/10/21 05:28:57;;;;;;;0.60;0.20;;;27.30;38.90;;;;;;4876662;28;45913;-50
2023/10/21 05:31:23;;;;;;;0.30;0.20;;;27.30;39.40;;;;;;4883092;28;45326;-53
2023/10/21 05:33:48;;;;;;;0.13;0.13;;;27.30;38.80;;;;;;4894159;28;45238;-53
2023/10/21 05:36:14;;;;;;;0.40;0.17;;;27.30;38.80;;;;;;4890291;28;44975;-51
2023/10/21 05:38:39;;;;;;;0.10;0.10;;;27.30;38.80;;;;;;4878985;28;45222;-50
2023/10/21 05:41:05;;;;;;;0.30;0.10;;;27.30;38.80;;;;;;4889557;28;46084;-51
2023/10/21 05:43:30;;;;;;;0.30;0.17;;;27.30;38.80;;;;;;4897673;28;45796;-51
2023/10/21 05:45:58;;;;;;;0.83;0.20;;;27.30;38.80;;;;;;4886110;28;44898;-54
2023/10/21 05:48:23;;;;;;;0.25;0.25;;;27.30;38.80;;;;;;4898694;28;45301;-52
2023/10/21 05:50:49;;;;;;;0.38;0.25;;;27.30;38.80;;;;;;4888162;28;45645;-50
2023/10/21 05:53:15;;;;;;;0.32;0.20;;;27.30;38.80;;;;;;4899481;28;45384;-49
2023/10/21 05:55:41;;;;;;;0.90;0.23;;;27.30;38.80;;;;;;4871927;28;45473;-52
2023/10/21 05:58:10;;;;;;;1.50;0.20;;;27.30;38.80;;;;;;4901090;28;46331;-54
2023/10/21 06:00:36;;;;;;;0.40;0.20;;;27.30;39.40;;;;;;4887614;28;45384;-54
2023/10/21 06:03:01;;;;;;;0.20;0.20;;;27.30;38.90;;;;;;4900157;28;46333;-51
2023/10/21 06:05:35;;;;;;;0.40;0.20;;;27.30;38.80;;;;;;5026425;28;45437;-50
2023/10/21 06:08:01;;;;;;;0.28;0.20;;;27.30;38.90;;;;;;5031510;28;45173;-49
2023/10/21 06:10:27;;;;;;;0.30;0.30;;;27.30;38.80;;;;;;5021130;28;45338;-51
2023/10/21 06:12:53;;;;;;;0.10;0.10;;;27.30;38.80;;;;;;5017605;28;45448;-49
2023/10/21 06:15:18;;;;;;;0.70;0.20;;;27.30;38.80;;;;;;5020504;28;45545;-52
2023/10/21 06:17:45;;;;;;;0.50;0.30;;;27.30;38.80;;;;;;5022530;28;45236;-49
2023/10/21 06:20:11;;;;;;;0.70;0.20;;;27.30;38.80;;;;;;5027876;28;44790;-50
2023/10/21 06:22:37;;;;;;;0.40;0.20;;;27.30;38.80;;;;;;5008436;28;45973;-50
2023/10/21 06:25:04;;;;;;;0.20;0.13;;;27.30;38.80;;;;;;5032939;28;46743;-48
2023/10/21 06:27:29;;;;;;;0.40;0.20;;;27.30;38.80;;;;;;5022736;28;45636;-48
2023/10/21 06:29:55;;;;;;;0.20;0.20;;;27.30;38.80;;;;;;5029215;28;45333;-49
2023/10/21 06:32:21;;;;;;;0.43;0.20;;;27.30;38.80;;;;;;5017483;28;45349;-50
2023/10/21 06:34:46;;;;;;;0.70;0.20;;;27.30;38.80;;;;;;5033914;28;46139;-51
2023/10/21 06:37:12;;;;;;;0.20;0.20;;;27.30;38.80;;;;;;5021090;28;45870;-50
2023/10/21 06:39:37;;;;;;;0.20;0.20;;;27.30;38.80;;;;;;5020264;28;45372;-52
2023/10/21 06:42:03;;;;;;;0.50;0.20;;;27.30;38.80;;;;;;5011542;28;45409;-51
2023/10/21 06:44:29;;;;;;;0.37;0.27;;;27.30;38.80;;;;;;5031607;28;45384;-48
2023/10/21 06:46:55;;;;;;;0.20;0.10;;;27.20;38.70;;;;;;5028171;27;45331;-50
2023/10/21 06:49:20;;;;;;;0.57;0.30;;;27.30;38.80;;;;;;5033651;28;45320;-54
2023/10/21 06:51:49;;;;;;;0.20;0.20;;;27.30;38.80;;;;;;5021581;28;45629;-50
2023/10/21 06:54:16;;;;;;;0.80;0.10;;;27.20;38.70;;;;;;5026018;28;45482;-51
2023/10/21 06:56:42;;;;;;;0.20;0.20;;;27.30;38.40;;;;;;5001940;28;45310;-51
2023/10/21 06:59:08;;;;;;;0.20;0.20;;;27.20;38.70;;;;;;5023448;28;46834;-51
2023/10/21 07:01:34;;;;;;;0.70;0.30;;;27.20;38.70;;;;;;5003811;28;45668;-48
2023/10/21 07:04:00;;;;;;;0.40;0.30;;;27.20;38.70;;;;;;5023402;28;45317;-50
2023/10/21 07:06:25;;;;;;;0.60;0.30;;;27.30;38.70;;;;;;5024972;28;45304;-48
2023/10/21 07:08:51;;;;;;;0.20;0.10;;;27.20;38.70;;;;;;5025832;27;45114;-49
2023/10/21 07:11:17;;;;;;;0.47;0.17;;;27.30;38.80;;;;;;5008036;28;45485;-51
2023/10/21 07:13:42;;;;;;;0.40;0.20;;;27.20;38.70;;;;;;5025705;28;45815;-48
2023/10/21 07:16:10;;;;;;;0.10;0.10;;;27.30;38.80;;;;;;5007056;28;45723;-50
2023/10/21 07:18:36;;;;;;;0.10;0.10;;;27.20;38.70;;;;;;5016783;28;45644;-49
2023/10/21 07:21:02;;;;;;;0.30;0.20;;;27.30;38.80;;;;;;5005407;28;45646;-51
2023/10/21 07:23:28;;;;;;;0.95;0.20;;;27.20;38.70;;;;;;5022227;28;46771;-49
2023/10/21 07:25:53;;;;;;;0.50;0.13;;;27.20;38.70;;;;;;5007776;28;45801;-48
2023/10/21 07:28:19;;;;;;;0.20;0.20;;;27.20;38.70;;;;;;5019693;28;45338;-50
2023/10/21 07:30:44;;;;;;;2.60;0.30;;;27.20;38.70;;;;;;5000039;28;46142;-49
2023/10/21 07:33:10;;;;;;;0.20;0.20;;;27.20;38.70;;;;;;5015259;28;45368;-50
2023/10/21 07:35:36;;;;;;;0.10;0.10;;;27.20;38.80;;;;;;5012722;28;45368;-49
2023/10/21 07:38:03;;;;;;;0.10;0.10;;;27.30;38.80;;;;;;5015307;28;45144;-50
2023/10/21 07:40:31;;;;;;;0.17;0.13;;;27.20;38.80;;;;;;5006580;28;45741;-48
2023/10/21 07:43:02;;;;;;;0.40;0.10;;;27.20;38.80;;;;;;5000583;28;45683;-51
2023/10/21 07:45:28;;;;;;;0.70;0.20;;;27.20;38.80;;;;;;5006095;28;45137;-52
2023/10/21 07:47:54;;;;;;;0.10;0.10;;;27.20;38.80;;;;;;5009118;28;48340;-50
2023/10/21 07:50:20;;;;;;;0.10;0.10;;;27.20;38.80;;;;;;5012862;28;45738;-51
2023/10/21 07:52:45;;;;;;;0.32;0.20;;;27.20;38.80;;;;;;5014221;28;46569;-48
2023/10/21 07:55:12;;;;;;;2.60;0.30;;;27.20;38.80;;;;;;5013386;28;45376;-50
2023/10/21 07:57:39;;;;;;;0.28;0.20;;;27.20;38.90;;;;;;4995251;28;47011;-50
2023/10/21 08:00:06;;;;;;;0.38;0.17;;;27.20;38.80;;;;;;5006482;28;45206;-53
2023/10/21 08:02:32;;;;;;;0.17;0.15;;;27.20;39.50;;;;;;4971479;28;47131;-52
2023/10/21 08:04:57;;;;;;;0.43;0.20;;;27.20;38.90;;;;;;5019083;28;45453;-50
2023/10/21 08:07:23;;;;;;;0.53;0.20;;;27.20;38.90;;;;;;5007310;28;45393;-50
2023/10/21 08:09:49;;;;;;;0.20;0.20;;;27.20;38.90;;;;;;5015446;28;45017;-50
2023/10/21 08:12:14;;;;;;;0.47;0.20;;;27.20;38.90;;;;;;5008110;28;45550;-48
2023/10/21 08:14:40;;;;;;;0.30;0.10;;;27.20;38.90;;;;;;5012970;28;45929;-48
2023/10/21 08:17:07;;;;;;;0.15;0.10;;;27.20;38.90;;;;;;5002349;28;45740;-55
2023/10/21 08:19:33;;;;;;;0.25;0.10;;;27.20;38.90;;;;;;5015781;28;45370;-53
2023/10/21 08:21:59;;;;;;;0.10;0.10;;;27.20;38.90;;;;;;5004517;28;45338;-51
2023/10/21 08:24:25;;;;;;;0.10;0.10;;;27.20;38.90;;;;;;5018189;28;45130;-53
2023/10/21 08:26:51;;;;;;;0.10;0.10;;;27.20;38.90;;;;;;5006275;28;45243;-49
2023/10/21 08:29:17;;;;;;;0.43;0.20;;;27.10;38.80;;;;;;5012157;28;45442;-50
2023/10/21 08:31:42;;;;;;;0.30;0.20;;;27.20;38.90;;;;;;4961578;28;46040;-51
2023/10/21 08:34:12;;;;;;;0.90;0.10;;;27.20;38.90;;;;;;5006998;28;46436;-50
2023/10/21 08:36:39;;;;;;;0.50;0.20;;;27.20;38.90;;;;;;4989929;28;45983;-52
2023/10/21 08:39:07;;;;;;;0.30;0.20;;;27.20;38.90;;;;;;5000722;28;45501;-52
2023/10/21 08:41:35;;;;;;;0.20;0.20;;;27.20;38.90;;;;;;4986715;28;46607;-53
2023/10/21 08:44:01;;;;;;;0.10;0.10;;;27.20;39.00;;;;;;4996210;28;44975;-50
2023/10/21 08:46:27;;;;;;;0.20;0.20;;;27.20;38.90;;;;;;4993477;28;46336;-49
2023/10/21 08:48:52;;;;;;;0.30;0.20;;;27.20;38.90;;;;;;5006998;28;45593;-52
2023/10/21 08:51:20;;;;;;;0.20;0.17;;;27.20;38.90;;;;;;4991117;28;46467;-51
2023/10/21 08:53:46;;;;;;;0.13;0.13;;;27.20;38.90;;;;;;5002576;28;46200;-52
2023/10/21 08:56:13;;;;;;;0.50;0.10;;;27.20;38.90;;;;;;4994288;28;45242;-50
2023/10/21 08:58:38;;;;;;;0.63;0.20;;;27.20;39.00;;;;;;5013495;28;46130;-51
2023/10/21 09:01:05;;;;;;;0.30;0.17;;;27.20;38.90;;;;;;4980402;28;45549;-52
2023/10/21 09:03:32;;;;;;;0.50;0.20;;;27.20;39.00;;;;;;4983045;28;45664;-52
2023/10/21 09:06:19;;;;;;;0.17;0.17;;;27.20;39.00;;;;;;4975962;28;45851;-52
2023/10/21 09:08:45;;;;;;;0.10;0.10;;;27.20;39.00;;;;;;5006838;28;44687;-51
2023/10/21 09:11:12;;;;;;;0.65;0.10;;;27.10;38.90;;;;;;4988931;28;46438;-51
2023/10/21 09:13:39;;;;;;;0.10;0.10;;;27.20;39.00;;;;;;4996959;28;45472;-51
2023/10/21 09:16:19;;;;;;;0.10;0.10;;;27.20;39.20;;;;;;4983555;28;45766;-52
2023/10/21 09:19:06;;;;;;;0.20;0.20;;;27.10;38.90;;;;;;5007580;28;45598;-51
2023/10/21 09:21:43;;;;;;;0.10;0.10;;;27.10;38.90;;;;;;4982513;28;45428;-52
2023/10/21 09:24:12;;;;;;;0.10;0.10;;;27.20;39.00;;;;;;4994652;28;45240;-52
2023/10/21 09:26:42;;;;;;;0.10;0.10;;;27.20;39.00;;;;;;5001451;28;45468;-53
2023/10/21 09:29:11;;;;;;;0.10;0.10;;;27.10;39.00;;;;;;5004899;28;45323;-51
2023/10/21 09:31:47;;;;;;;0.77;0.20;;;27.20;39.00;;;;;;4985953;28;46770;-51
2023/10/21 09:34:24;;;;;;;0.15;0.10;;;27.20;39.00;;;;;;4999736;28;45340;-51
2023/10/21 09:36:52;;;;;;;0.10;0.10;;;27.10;39.00;;;;;;5000417;28;46819;-53
2023/10/21 09:39:17;;;;;;;0.50;0.10;;;27.10;39.00;;;;;;4999484;28;44941;-52
2023/10/21 09:41:43;;;;;;;0.22;0.20;;;27.20;39.00;;;;;;4991278;28;46440;-51
2023/10/21 09:44:10;;;;;;;0.40;0.20;;;27.10;39.00;;;;;;5000695;28;45315;-53
2023/10/21 09:46:36;;;;;;;0.20;0.20;;;27.20;39.10;;;;;;4974302;28;45380;-51
2023/10/21 09:49:03;;;;;;;0.25;0.10;;;27.20;39.10;;;;;;4979136;28;45323;-50
2023/10/21 09:51:30;;;;;;;0.15;0.15;;;27.10;39.00;;;;;;4994930;28;45831;-52
2023/10/21 09:53:56;;;;;;;0.43;0.10;;;27.10;39.00;;;;;;5003739;28;45362;-49
2023/10/21 09:56:22;;;;;;;0.20;0.20;;;27.10;39.00;;;;;;4992756;28;45232;-49
2023/10/21 09:58:47;;;;;;;0.20;0.20;;;27.20;39.10;;;;;;5001851;28;46190;-54
2023/10/21 10:01:13;;;;;;;0.10;0.10;;;27.10;39.00;;;;;;4979785;28;45457;-53
2023/10/21 10:03:39;;;;;;;0.22;0.10;;;27.10;39.00;;;;;;4989588;28;45346;-52
2023/10/21 10:06:04;;;;;;;0.50;0.17;;;27.20;39.10;;;;;;4957947;28;45531;-51
2023/10/21 10:08:33;;;;;;;0.40;0.10;;;27.10;39.00;;;;;;5009553;28;45502;-52
2023/10/21 10:11:06;;;;;;;0.20;0.10;;;27.10;39.00;;;;;;5001063;28;46820;-51
2023/10/21 10:13:34;;;;;;;0.70;0.15;;;27.10;39.00;;;;;;5005457;28;45792;-52
2023/10/21 10:16:20;;;;;;;0.73;0.10;;;27.10;39.10;;;;;;4997872;28;45188;-53
2023/10/21 10:18:50;;;;;;;0.30;0.20;;;27.10;39.10;;;;;;5009774;28;45485;-52
2023/10/21 10:21:16;;;;;;;0.40;0.13;;;27.10;39.10;;;;;;5002950;28;45282;-53
2023/10/21 10:23:49;;;;;;;0.30;0.17;;;27.10;39.10;;;;;;4987977;28;45459;-51
2023/10/21 10:26:46;;;;;;;0.10;0.10;;;27.10;39.10;;;;;;5004668;28;45435;-52
2023/10/21 10:29:25;;;;;;;1.30;0.40;;;27.10;39.10;;;;;;5000827;28;45503;-54
2023/10/21 10:32:10;;;;;;;0.47;0.10;;;27.10;39.20;;;;;;4996364;28;46368;-51
2023/10/21 10:34:40;;;;;;;0.35;0.10;;;27.10;39.10;;;;;;5008495;28;45316;-53
2023/10/21 10:37:24;;;;;;;0.32;0.13;;;27.10;39.20;;;;;;4998818;28;45472;-52
2023/10/21 10:39:49;;;;;;;0.80;0.27;;;27.10;39.10;;;;;;5004417;28;45299;-51
2023/10/21 10:42:15;;;;;;;0.10;0.10;;;27.10;39.20;;;;;;4990310;28;47077;-53
2023/10/21 10:44:41;;;;;;;0.60;0.10;;;27.10;39.20;;;;;;5012817;28;46588;-53
2023/10/21 10:47:07;;;;;;;0.30;0.20;;;27.10;39.20;;;;;;4997541;28;45089;-53
2023/10/21 10:49:54;;;;;;;0.60;0.20;;;27.10;39.20;;;;;;5011060;28;44857;-52
2023/10/21 10:52:27;;;;;;;0.10;0.10;;;27.10;39.20;;;;;;4997139;28;45359;-51
2023/10/21 10:54:53;;;;;;;0.20;0.10;;;27.10;39.20;;;;;;5019505;28;45397;-53
2023/10/21 10:57:20;;;;;;;0.20;0.10;;;27.10;39.20;;;;;;5010360;28;45670;-50
2023/10/21 10:59:47;;;;;;;0.30;0.20;;;27.10;39.80;;;;;;5021237;28;45103;-52
2023/10/21 11:02:14;;;;;;;0.20;0.20;;;27.10;39.20;;;;;;4996691;28;46376;-51
2023/10/21 11:04:44;;;;;;;0.10;0.10;;;27.10;39.20;;;;;;5018824;28;45366;-51
2023/10/21 11:07:11;;;;;;;0.50;0.20;;;27.10;39.20;;;;;;5009170;28;45230;-51
2023/10/21 11:09:36;;;;;;;0.30;0.20;;;27.10;39.20;;;;;;5022761;28;45315;-52
2023/10/21 11:12:02;;;;;;;0.10;0.10;;;27.10;39.20;;;;;;5006342;28;46415;-51
2023/10/21 11:14:28;;;;;;;0.30;0.10;;;27.10;39.20;;;;;;5014383;28;45404;-50
2023/10/21 11:16:53;;;;;;;0.55;0.10;;;27.10;39.20;;;;;;5005035;28;45195;-52
2023/10/21 11:19:19;;;;;;;0.40;0.20;;;27.10;39.20;;;;;;5019058;28;44958;-49
2023/10/21 11:21:50;;;;;;;0.67;0.17;;;27.10;39.20;;;;;;5010129;28;45474;-50
2023/10/21 11:24:16;;;;;;;0.28;0.10;;;27.10;39.20;;;;;;5013211;28;44670;-52
2023/10/21 11:26:41;;;;;;;0.30;0.10;;;27.10;39.20;;;;;;5011880;28;45614;-50
2023/10/21 11:29:07;;;;;;;0.25;0.10;;;27.10;39.20;;;;;;5022897;28;45236;-53
2023/10/21 11:31:35;;;;;;;0.60;0.10;;;27.10;39.20;;;;;;4990549;28;45546;-50
2023/10/21 11:34:15;;;;;;;0.50;0.10;;;27.10;39.30;;;;;;5018528;28;46673;-50
2023/10/21 11:36:40;;;;;;;0.47;0.10;;;27.10;39.20;;;;;;5012275;28;44873;-50
2023/10/21 11:39:13;;;;;;;0.65;0.20;;;27.10;39.20;;;;;;5016702;28;45214;-52
2023/10/21 11:41:48;;;;;;;0.13;0.10;;;27.10;39.30;;;;;;5017565;28;45730;-51
2023/10/21 11:44:15;;;;;;;0.45;0.10;;;27.10;39.30;;;;;;5007933;28;45222;-50
2023/10/21 11:46:41;;;;;;;0.60;0.20;;;27.10;39.20;;;;;;4999797;28;45267;-52
2023/10/21 11:49:16;;;;;;;1.10;0.20;;;27.10;39.30;;;;;;5025807;28;45475;-53
2023/10/21 11:51:42;;;;;;;0.20;0.10;;;27.10;39.30;;;;;;5007930;28;46306;-49
2023/10/21 11:54:09;;;;;;;0.25;0.10;;;27.10;39.30;;;;;;5024602;28;45470;-53
2023/10/21 11:56:57;;;;;;;0.22;0.10;;;27.10;39.30;;;;;;5013255;28;45424;-50
2023/10/21 12:18:25;;;;;;;0.10;0.10;;;27.10;39.30;;;;;;5021940;28;45246;-51
2023/10/21 12:34:52;;;;;;;0.20;0.10;;;27.10;39.40;;;;;;5012732;28;45566;-53
2023/10/21 12:42:48;;;;;;;0.28;0.10;;;27.00;39.40;;;;;;5012276;28;45625;-53
2023/10/21 12:45:22;;;;;;;0.10;0.10;;;27.00;39.40;;;;;;5006558;28;45676;-51
2023/10/21 12:47:48;;;;;;;0.10;0.10;;;27.00;39.40;;;;;;5012555;28;46572;-52
2023/10/21 12:50:14;;;;;;;0.20;0.10;;;27.10;39.50;;;;;;5014207;28;45347;-52
2023/10/21 12:52:43;;;;;;;0.30;0.10;;;27.00;39.50;;;;;;5011274;28;45441;-51
2023/10/21 12:55:13;;;;;;;0.13;0.13;;;27.00;39.40;;;;;;5015251;28;45947;-53
2023/10/21 12:57:39;;;;;;;0.20;0.10;;;27.00;39.40;;;;;;5009272;28;44942;-49
2023/10/21 13:00:05;;;;;;;0.17;0.17;;;27.00;39.50;;;;;;5006697;28;45314;-53
2023/10/21 13:02:35;;;;;;;0.20;0.10;;;27.00;39.50;;;;;;4957907;28;45906;-54
2023/10/21 13:05:03;;;;;;;0.40;0.10;;;27.00;39.50;;;;;;5010005;28;45308;-51
2023/10/21 13:07:31;;;;;;;0.73;0.20;;;27.00;39.50;;;;;;5004474;28;45402;-52
2023/10/21 13:09:57;;;;;;;0.20;0.10;;;27.10;39.50;;;;;;5014030;28;44856;-51
2023/10/21 13:12:23;;;;;;;0.30;0.20;;;27.00;39.50;;;;;;5001328;28;47195;-51
2023/10/21 13:14:49;;;;;;;0.30;0.10;;;27.00;39.50;;;;;;5012500;28;45656;-52
2023/10/21 13:17:15;;;;;;;0.10;0.10;;;27.00;39.60;;;;;;4999423;28;45601;-54
2023/10/21 13:19:40;;;;;;;0.17;0.10;;;27.00;39.50;;;;;;5009163;28;45611;-51
2023/10/21 13:22:06;;;;;;;0.53;0.20;;;27.00;39.50;;;;;;4982705;28;46956;-49
2023/10/21 13:24:33;;;;;;;0.10;0.10;;;27.00;39.50;;;;;;5011029;28;46793;-51
2023/10/21 13:26:59;;;;;;;0.90;0.20;;;27.00;39.60;;;;;;4995932;28;47088;-55
2023/10/21 13:29:24;;;;;;;0.50;0.10;;;27.00;39.60;;;;;;4995711;28;45459;-49
2023/10/21 13:31:50;;;;;;;0.30;0.20;;;27.00;39.60;;;;;;4995641;28;45241;-53
2023/10/21 13:34:15;;;;;;;0.30;0.10;;;27.00;39.60;;;;;;5013241;28;45418;-49
2023/10/21 13:36:41;;;;;;;0.32;0.20;;;27.00;39.60;;;;;;5010782;28;45324;-50
2023/10/21 13:39:18;;;;;;;0.50;0.20;;;27.00;39.60;;;;;;5023711;28;45459;-51
2023/10/21 13:41:44;;;;;;;0.20;0.20;;;27.00;39.60;;;;;;5009958;28;45611;-50
2023/10/21 13:44:10;;;;;;;1.17;0.20;;;27.00;39.60;;;;;;5001504;28;46628;-50
2023/10/21 13:46:35;;;;;;;0.77;0.20;;;27.00;39.60;;;;;;4966716;28;45153;-50
2023/10/21 13:49:02;;;;;;;0.53;0.20;;;27.00;39.70;;;;;;5014394;28;45219;-52
2023/10/21 13:51:28;;;;;;;0.20;0.20;;;27.00;39.70;;;;;;5006534;28;45232;-48
2023/10/21 13:53:54;;;;;;;0.10;0.10;;;27.00;39.70;;;;;;5007518;28;46955;-54
2023/10/21 13:56:19;;;;;;;0.10;0.10;;;27.00;39.70;;;;;;5008961;28;45488;-53
2023/10/21 13:58:46;;;;;;;1.50;0.32;;;27.00;39.70;;;;;;5018016;28;45617;-52
2023/10/21 14:01:13;;;;;;;0.90;0.10;;;27.00;39.70;;;;;;4999567;28;45349;-51
2023/10/21 14:03:39;;;;;;;0.50;0.17;;;27.00;39.80;;;;;;5003432;28;45696;-50
2023/10/21 14:06:05;;;;;;;0.23;0.20;;;27.00;39.70;;;;;;4985429;28;46289;-51
2023/10/21 14:08:31;;;;;;;0.60;0.20;;;27.00;39.70;;;;;;5017814;28;45422;-48
2023/10/21 14:11:00;;;;;;;0.30;0.20;;;27.00;39.70;;;;;;5003496;28;45357;-51
2023/10/21 14:13:28;;;;;;;0.20;0.20;;;27.00;39.80;;;;;;5009238;28;46266;-53
2023/10/21 14:15:55;;;;;;;0.38;0.28;;;27.00;39.80;;;;;;4995959;28;45375;-53
2023/10/21 14:18:22;;;;;;;0.32;0.30;;;27.00;39.80;;;;;;5013921;28;44686;-52
2023/10/21 14:20:49;;;;;;;0.25;0.20;;;27.00;39.80;;;;;;4999534;28;45764;-51
2023/10/21 14:23:16;;;;;;;1.37;0.20;;;27.00;39.90;;;;;;5007565;28;47744;-51
2023/10/21 14:26:03;;;;;;;0.25;0.20;;;26.90;39.70;;;;;;5003779;28;45590;-52
2023/10/21 14:28:30;;;;;;;1.75;0.20;;;26.90;39.70;;;;;;4999893;28;44812;-52
2023/10/21 14:30:57;;;;;;;0.10;0.10;;;27.00;39.80;;;;;;4999038;28;45364;-53
2023/10/21 14:33:25;;;;;;;0.10;0.10;;;26.90;39.80;;;;;;5013347;28;45433;-50
2023/10/21 14:35:51;;;;;;;1.25;0.30;;;26.90;39.80;;;;;;5015544;28;45291;-53
2023/10/21 14:38:17;;;;;;;1.33;0.30;;;26.90;39.80;;;;;;5019054;28;45564;-48
2023/10/21 14:40:43;;;;;;;0.30;0.20;;;26.90;39.80;;;;;;5005375;28;45715;-52
2023/10/21 14:43:09;;;;;;;0.80;0.20;;;26.90;39.80;;;;;;5008386;28;45763;-51
2023/10/21 14:45:36;;;;;;;0.30;0.20;;;26.90;39.80;;;;;;4978718;28;50010;-48
2023/10/21 14:48:02;;;;;;;0.30;0.30;;;26.90;39.80;;;;;;5010516;28;45443;-50
2023/10/21 14:50:29;;;;;;;0.63;0.30;;;26.90;39.90;;;;;;4985365;28;44970;-53
2023/10/21 14:52:56;;;;;;;0.70;0.30;;;26.90;39.80;;;;;;5011808;28;46241;-50
2023/10/21 14:55:22;;;;;;;0.40;0.30;;;26.90;40.50;;;;;;5010180;28;45294;-54
2023/10/21 14:57:47;;;;;;;0.70;0.30;;;26.90;39.90;;;;;;5019444;28;45399;-53
2023/10/21 15:00:15;;;;;;;0.80;0.28;;;26.90;39.90;;;;;;5004606;28;45283;-50
2023/10/21 15:02:45;;;;;;;0.67;0.27;;;26.90;39.90;;;;;;5001833;28;45320;-53
2023/10/21 15:05:11;;;;;;;0.30;0.30;;;26.90;39.90;;;;;;5009986;28;46646;-53
2023/10/21 15:07:37;;;;;;;0.40;0.30;;;26.90;39.90;;;;;;5020124;28;46055;-52
2023/10/21 15:10:10;;;;;;;0.20;0.20;;;26.90;39.90;;;;;;5014086;28;47647;-52
2023/10/21 15:12:37;;;;;;;0.20;0.20;;;26.90;39.90;;;;;;5013804;28;45566;-52
2023/10/21 15:15:04;;;;;;;0.20;0.20;;;26.90;40.00;;;;;;5008225;28;46228;-52
2023/10/21 15:17:35;;;;;;;0.30;0.30;;;26.90;40.00;;;;;;4990601;28;45689;-51
2023/10/21 15:20:07;;;;;;;0.63;0.30;;;26.90;40.00;;;;;;5009018;28;45646;-51
2023/10/21 15:22:33;;;;;;;1.65;0.30;;;26.90;40.00;;;;;;5008284;28;45346;-52
2023/10/21 15:25:00;;;;;;;0.32;0.30;;;26.90;40.00;;;;;;4992765;28;46023;-51
2023/10/21 15:27:26;;;;;;;0.40;0.40;;;26.90;40.00;;;;;;4979419;28;45686;-49
2023/10/21 15:29:54;;;;;;;0.30;0.30;;;26.90;40.60;;;;;;4986350;28;45521;-53
2023/10/21 15:32:23;;;;;;;0.30;0.30;;;26.90;40.00;;;;;;4993222;28;45543;-51
2023/10/21 15:34:49;;;;;;;0.43;0.40;;;26.90;40.10;;;;;;5007593;28;45169;-54
2023/10/21 15:37:20;;;;;;;0.40;0.40;;;26.90;40.00;;;;;;4998238;28;45271;-53
2023/10/21 15:39:46;;;;;;;0.40;0.30;;;26.90;40.00;;;;;;5008487;28;45323;-53
2023/10/21 15:42:11;;;;;;;0.57;0.47;;;26.90;40.00;;;;;;5001094;28;46354;-54
2023/10/21 15:44:37;;;;;;;0.43;0.40;;;26.90;40.00;;;;;;5019181;28;45641;-53
2023/10/21 15:47:03;;;;;;;0.33;0.33;;;26.90;40.70;;;;;;4987258;28;46075;-53
2023/10/21 15:49:28;;;;;;;0.45;0.40;;;26.90;40.10;;;;;;5021393;28;45767;-50
2023/10/21 15:51:54;;;;;;;0.30;0.30;;;26.90;40.10;;;;;;4994075;28;45455;-53
2023/10/21 15:54:19;;;;;;;0.40;0.40;;;26.90;40.10;;;;;;5011212;28;46146;-52
2023/10/21 15:56:45;;;;;;;0.60;0.40;;;26.90;40.10;;;;;;5001294;28;45286;-54
2023/10/21 15:59:11;;;;;;;0.30;0.30;;;26.90;40.10;;;;;;5007007;28;46063;-48
2023/10/21 16:01:37;;;;;;;0.40;0.40;;;26.90;40.20;;;;;;4996260;28;46169;-50
2023/10/21 16:04:03;;;;;;;1.02;0.50;;;26.90;40.20;;;;;;5002601;28;44986;-51
2023/10/21 16:06:29;;;;;;;0.52;0.40;;;26.90;40.20;;;;;;4994079;28;45774;-51
2023/10/21 16:08:58;;;;;;;0.60;0.40;;;26.90;40.20;;;;;;5002442;28;45328;-53
2023/10/21 16:11:24;;;;;;;1.00;0.40;;;26.90;40.20;;;;;;5008615;28;45631;-50
2023/10/21 16:13:51;;;;;;;1.00;0.50;;;26.90;40.30;;;;;;5003348;28;45557;-53
2023/10/21 16:16:17;;;;;;;0.70;0.40;;;26.90;40.30;;;;;;4996974;28;45478;-50
2023/10/21 16:18:42;;;;;;;0.57;0.40;;;26.90;40.20;;;;;;5004919;28;46168;-52
2023/10/21 16:21:08;;;;;;;0.40;0.40;;;26.90;40.20;;;;;;4992876;28;46897;-51
2023/10/21 16:23:34;;;;;;;0.30;0.30;;;26.90;40.20;;;;;;4997594;28;45642;-54
2023/10/21 16:25:59;;;;;;;0.95;0.47;;;26.90;40.30;;;;;;4998398;28;45306;-52
2023/10/21 16:28:25;;;;;;;1.10;0.50;;;26.90;40.40;;;;;;5006594;28;46400;-51